Time;durP1;ratioP1;P1;durP2;ratioP2;P2;SDS_P1;SDS_P2;PMS_P1;PMS_P2;Temp;Humidity;BMP_temperature;BMP_pressure;BME280_temperature;BME280_humidity;BME280_pressure;Samples;Min_cycle;Max_cycle;Signal;HPM_P1;HPM_P2
2023/09/25 00:00:34;;;;;;;2.08;1.05;;;;;;;;;;1021023;29;20095;-73
2023/09/25 00:01:04;;;;;;;1.23;1.20;;;;;;;;;;1018393;29;20027;-74
2023/09/25 00:01:35;;;;;;;1.55;1.40;;;;;;;;;;1022353;29;20487;-74
2023/09/25 00:02:06;;;;;;;2.03;1.58;;;;;;;;;;1021902;29;20047;-73
2023/09/25 00:02:36;;;;;;;1.58;1.48;;;;;;;;;;1022020;29;20023;-73
2023/09/25 00:03:07;;;;;;;3.05;2.05;;;;;;;;;;1026078;28;20027;-74
2023/09/25 00:03:37;;;;;;;2.67;1.98;;;;;;;;;;1026077;28;20031;-74
2023/09/25 00:04:07;;;;;;;1.45;0.95;;;;;;;;;;1023879;28;20035;-73
2023/09/25 00:04:38;;;;;;;4.05;1.58;;;;;;;;;;1025697;28;20027;-73
2023/09/25 00:05:08;;;;;;;1.85;1.73;;;;;;;;;;1026376;28;20078;-74
2023/09/25 00:05:39;;;;;;;0.90;0.85;;;;;;;;;;1025741;28;20043;-73
2023/09/25 00:06:10;;;;;;;1.65;1.55;;;;;;;;;;1023891;29;20030;-74
2023/09/25 00:06:41;;;;;;;2.15;1.92;;;;;;;;;;1023839;29;20114;-74
2023/09/25 00:07:11;;;;;;;1.33;1.23;;;;;;;;;;1023895;29;20285;-74
2023/09/25 00:07:42;;;;;;;3.40;1.90;;;;;;;;;;1023925;28;20396;-74
2023/09/25 00:08:12;;;;;;;7.00;1.73;;;;;;;;;;1026357;28;20395;-74
2023/09/25 00:08:43;;;;;;;13.80;4.38;;;;;;;;;;1026327;28;20028;-74
2023/09/25 00:09:13;;;;;;;0.60;0.60;;;;;;;;;;1026452;28;20033;-73
2023/09/25 00:09:44;;;;;;;2.47;1.77;;;;;;;;;;1026161;28;20019;-73
2023/09/25 00:10:14;;;;;;;1.83;1.73;;;;;;;;;;1025888;28;20027;-73
2023/09/25 00:10:45;;;;;;;2.30;2.17;;;;;;;;;;1025933;28;20027;-74
2023/09/25 00:11:15;;;;;;;1.70;1.60;;;;;;;;;;1026240;28;20407;-74
2023/09/25 00:11:46;;;;;;;0.40;0.40;;;;;;;;;;1025084;28;20161;-74
2023/09/25 00:12:16;;;;;;;3.22;2.55;;;;;;;;;;1025668;28;20476;-74
2023/09/25 00:12:47;;;;;;;4.32;2.92;;;;;;;;;;1025735;28;20435;-73
2023/09/25 00:13:17;;;;;;;1.95;1.35;;;;;;;;;;1025675;28;20392;-73
2023/09/25 00:13:48;;;;;;;1.20;1.10;;;;;;;;;;1027313;28;20471;-73
2023/09/25 00:14:19;;;;;;;2.90;2.15;;;;;;;;;;1026343;28;20018;-74
2023/09/25 00:14:49;;;;;;;2.90;2.05;;;;;;;;;;1026389;28;20491;-74
2023/09/25 00:15:20;;;;;;;3.70;2.47;;;;;;;;;;1026439;28;20023;-74
2023/09/25 00:15:50;;;;;;;1.23;1.13;;;;;;;;;;1025042;28;20404;-74
2023/09/25 00:16:21;;;;;;;2.10;1.95;;;;;;;;;;1026086;28;20049;-74
2023/09/25 00:16:51;;;;;;;7.75;2.53;;;;;;;;;;1024183;28;20044;-74
2023/09/25 00:17:22;;;;;;;1.15;1.08;;;;;;;;;;1026111;28;20098;-74
2023/09/25 00:17:53;;;;;;;1.25;1.10;;;;;;;;;;1026158;28;20023;-72
2023/09/25 00:18:23;;;;;;;4.25;0.90;;;;;;;;;;1026275;28;20019;-74
2023/09/25 00:18:54;;;;;;;0.75;0.73;;;;;;;;;;1025572;28;20444;-74
2023/09/25 00:19:24;;;;;;;1.50;1.15;;;;;;;;;;1025676;28;20062;-74
2023/09/25 00:19:55;;;;;;;2.47;1.75;;;;;;;;;;1025740;28;20033;-74
2023/09/25 00:20:25;;;;;;;0.90;0.90;;;;;;;;;;1026908;28;20026;-73
2023/09/25 00:20:56;;;;;;;0.70;0.68;;;;;;;;;;1025828;28;20144;-74
2023/09/25 00:21:26;;;;;;;1.42;1.33;;;;;;;;;;1026088;28;20435;-74
2023/09/25 00:21:57;;;;;;;3.45;1.63;;;;;;;;;;1026434;28;20538;-74
2023/09/25 00:22:27;;;;;;;0.52;0.52;;;;;;;;;;1026242;28;20019;-73
2023/09/25 00:22:58;;;;;;;2.53;1.55;;;;;;;;;;1026318;28;20085;-73
2023/09/25 00:23:28;;;;;;;3.20;1.65;;;;;;;;;;1025604;28;20019;-73
2023/09/25 00:23:59;;;;;;;3.55;3.25;;;;;;;;;;1025561;28;20074;-73
2023/09/25 00:24:29;;;;;;;9.43;1.52;;;;;;;;;;1025872;28;20019;-73
2023/09/25 00:24:59;;;;;;;11.30;3.58;;;;;;;;;;1026111;28;20055;-74
2023/09/25 00:25:31;;;;;;;1.52;1.42;;;;;;;;;;1026367;28;20523;-73
2023/09/25 00:26:31;;;;;;;0.83;0.73;;;;;;;;;;1031620;23;21255;-74
2023/09/25 00:27:02;;;;;;;0.90;0.88;;;;;;;;;;1030450;28;20253;-74
2023/09/25 00:27:33;;;;;;;4.00;1.60;;;;;;;;;;1026698;28;20030;-74
2023/09/25 00:28:03;;;;;;;1.60;0.90;;;;;;;;;;1021569;29;20424;-74
2023/09/25 00:28:34;;;;;;;16.40;2.72;;;;;;;;;;1021652;28;20107;-74
2023/09/25 00:29:04;;;;;;;5.35;1.83;;;;;;;;;;1021808;29;20480;-74
2023/09/25 00:29:35;;;;;;;1.10;1.00;;;;;;;;;;1022415;29;20495;-74
2023/09/25 00:30:08;;;;;;;0.60;0.60;;;;;;;;;;1022294;29;20028;-74
2023/09/25 00:30:39;;;;;;;0.63;0.63;;;;;;;;;;1021236;29;20059;-74
2023/09/25 00:31:09;;;;;;;1.73;1.63;;;;;;;;;;1022230;29;20023;-74
2023/09/25 00:31:40;;;;;;;1.20;1.10;;;;;;;;;;1021909;29;20035;-73
2023/09/25 00:32:10;;;;;;;4.07;2.47;;;;;;;;;;1021894;29;20032;-73
2023/09/25 00:32:41;;;;;;;28.85;2.92;;;;;;;;;;1022135;29;20432;-73
2023/09/25 00:33:12;;;;;;;9.13;2.72;;;;;;;;;;1023549;29;20475;-73
2023/09/25 00:33:42;;;;;;;0.98;0.90;;;;;;;;;;1022356;29;20467;-74
2023/09/25 00:34:14;;;;;;;6.13;2.78;;;;;;;;;;1020035;29;20031;-74
2023/09/25 00:34:44;;;;;;;0.43;0.43;;;;;;;;;;1022043;29;20113;-74
2023/09/25 00:35:15;;;;;;;1.45;1.25;;;;;;;;;;1022086;29;20139;-74
2023/09/25 00:35:46;;;;;;;3.58;1.88;;;;;;;;;;1021945;29;20019;-74
2023/09/25 00:36:17;;;;;;;1.48;1.10;;;;;;;;;;1022082;29;20050;-74
2023/09/25 00:36:48;;;;;;;3.33;2.35;;;;;;;;;;1019475;29;20027;-74
2023/09/25 00:37:18;;;;;;;7.63;2.55;;;;;;;;;;1019657;29;20436;-74
2023/09/25 00:37:49;;;;;;;3.03;2.47;;;;;;;;;;1020040;29;20027;-74
2023/09/25 00:38:20;;;;;;;5.03;2.20;;;;;;;;;;1019945;29;20090;-74
2023/09/25 00:38:50;;;;;;;3.15;1.77;;;;;;;;;;1020331;29;20024;-73
2023/09/25 00:39:21;;;;;;;5.03;2.30;;;;;;;;;;1021847;29;20028;-73
2023/09/25 00:39:52;;;;;;;2.08;1.65;;;;;;;;;;1021826;29;20092;-74
2023/09/25 00:40:24;;;;;;;0.50;0.50;;;;;;;;;;1023238;29;20047;-74
2023/09/25 00:40:55;;;;;;;1.50;1.40;;;;;;;;;;1021391;29;20035;-74
2023/09/25 00:41:25;;;;;;;1.45;1.35;;;;;;;;;;1021839;28;20416;-74
2023/09/25 00:41:55;;;;;;;4.32;3.90;;;;;;;;;;1019783;29;20054;-74
2023/09/25 00:42:26;;;;;;;2.05;1.52;;;;;;;;;;1022035;29;20023;-74
2023/09/25 00:42:57;;;;;;;2.13;1.75;;;;;;;;;;1021504;29;20019;-73
2023/09/25 00:43:27;;;;;;;5.32;1.05;;;;;;;;;;1022408;29;20547;-74
2023/09/25 00:43:58;;;;;;;2.90;1.73;;;;;;;;;;1021923;29;20426;-74
2023/09/25 00:44:28;;;;;;;1.60;1.50;;;;;;;;;;1021768;29;20106;-74
2023/09/25 00:44:59;;;;;;;6.47;3.15;;;;;;;;;;1022214;29;20410;-74
2023/09/25 00:45:29;;;;;;;0.98;0.65;;;;;;;;;;1021947;29;20023;-74
2023/09/25 00:46:00;;;;;;;2.63;1.95;;;;;;;;;;1022818;29;20038;-74
2023/09/25 00:46:31;;;;;;;3.92;2.83;;;;;;;;;;1021594;29;20074;-74
2023/09/25 00:47:02;;;;;;;1.98;1.77;;;;;;;;;;1021214;29;20085;-74
2023/09/25 00:47:32;;;;;;;5.50;2.17;;;;;;;;;;1021155;29;20026;-74
2023/09/25 00:48:03;;;;;;;1.65;1.55;;;;;;;;;;1022062;29;20098;-74
2023/09/25 00:48:34;;;;;;;1.27;0.85;;;;;;;;;;1021979;29;20122;-74
2023/09/25 00:49:04;;;;;;;1.20;1.15;;;;;;;;;;1021761;29;20055;-74
2023/09/25 00:49:35;;;;;;;1.73;0.93;;;;;;;;;;1021392;29;20047;-74
2023/09/25 00:50:06;;;;;;;11.70;2.03;;;;;;;;;;1022698;29;20031;-74
2023/09/25 00:50:37;;;;;;;11.30;1.45;;;;;;;;;;1021559;29;20028;-74
2023/09/25 00:51:07;;;;;;;4.13;1.95;;;;;;;;;;1021578;29;20079;-74
2023/09/25 00:51:38;;;;;;;2.30;1.17;;;;;;;;;;1022610;29;20126;-74
2023/09/25 00:52:09;;;;;;;13.77;2.88;;;;;;;;;;1020652;29;20032;-74
2023/09/25 00:52:42;;;;;;;2.05;1.70;;;;;;;;;;1018238;29;20020;-74
2023/09/25 00:53:12;;;;;;;5.35;3.15;;;;;;;;;;1018788;29;20027;-73
2023/09/25 00:53:45;;;;;;;1.15;1.10;;;;;;;;;;1017545;29;20020;-74
2023/09/25 00:54:18;;;;;;;2.17;1.65;;;;;;;;;;1018118;29;20082;-74
2023/09/25 00:54:48;;;;;;;7.65;3.17;;;;;;;;;;1019830;29;20108;-74
2023/09/25 00:55:19;;;;;;;2.13;1.98;;;;;;;;;;1019727;29;20055;-74
2023/09/25 00:55:49;;;;;;;3.50;1.42;;;;;;;;;;1019838;29;20038;-73
2023/09/25 00:56:20;;;;;;;1.77;1.67;;;;;;;;;;1019854;29;20110;-74
2023/09/25 00:56:50;;;;;;;2.08;1.05;;;;;;;;;;1021839;29;20122;-74
2023/09/25 00:57:21;;;;;;;4.25;2.65;;;;;;;;;;1021720;29;20026;-74
2023/09/25 00:57:52;;;;;;;0.55;0.55;;;;;;;;;;1021572;29;20727;-73
2023/09/25 00:58:23;;;;;;;2.67;2.33;;;;;;;;;;1021561;29;20035;-74
2023/09/25 00:58:54;;;;;;;0.73;0.73;;;;;;;;;;1022021;29;20027;-74
2023/09/25 00:59:26;;;;;;;6.15;3.10;;;;;;;;;;1022313;29;20030;-74
2023/09/25 00:59:56;;;;;;;1.15;0.82;;;;;;;;;;1021950;29;20122;-74
2023/09/25 01:00:26;;;;;;;1.15;1.10;;;;;;;;;;1020568;29;20029;-73
2023/09/25 01:00:57;;;;;;;4.50;2.55;;;;;;;;;;1021421;29;20023;-74
2023/09/25 01:01:27;;;;;;;7.97;5.25;;;;;;;;;;1021645;29;20026;-74
2023/09/25 01:01:58;;;;;;;1.90;1.77;;;;;;;;;;1021066;29;20034;-73
2023/09/25 01:02:29;;;;;;;1.85;1.40;;;;;;;;;;1021593;29;20396;-74
2023/09/25 01:03:00;;;;;;;3.17;1.63;;;;;;;;;;1021800;29;20139;-74
2023/09/25 01:03:31;;;;;;;7.68;2.22;;;;;;;;;;1021943;29;20578;-74
2023/09/25 01:04:02;;;;;;;2.00;1.48;;;;;;;;;;1022566;29;20023;-73
2023/09/25 01:04:32;;;;;;;19.38;2.42;;;;;;;;;;1021685;29;20082;-73
2023/09/25 01:05:06;;;;;;;3.28;2.03;;;;;;;;;;1021709;29;20020;-74
2023/09/25 01:05:37;;;;;;;3.92;2.13;;;;;;;;;;1021863;29;20460;-73
2023/09/25 01:06:07;;;;;;;4.88;2.42;;;;;;;;;;1022661;29;20562;-73
2023/09/25 01:06:38;;;;;;;7.38;3.60;;;;;;;;;;1021768;29;20038;-74
2023/09/25 01:07:08;;;;;;;6.65;4.18;;;;;;;;;;1019811;29;20035;-74
2023/09/25 01:07:40;;;;;;;3.47;2.40;;;;;;;;;;1016031;29;20050;-73
2023/09/25 01:08:10;;;;;;;3.10;1.70;;;;;;;;;;1016544;29;20220;-74
2023/09/25 01:08:41;;;;;;;4.20;2.95;;;;;;;;;;1018870;29;20589;-74
2023/09/25 01:09:12;;;;;;;3.97;3.33;;;;;;;;;;1021049;29;20027;-74
2023/09/25 01:09:43;;;;;;;4.28;2.63;;;;;;;;;;1021646;29;20495;-75
2023/09/25 01:10:14;;;;;;;2.72;1.90;;;;;;;;;;1021386;29;20038;-74
2023/09/25 01:10:46;;;;;;;3.35;2.97;;;;;;;;;;1017672;29;20036;-74
2023/09/25 01:11:16;;;;;;;4.65;3.10;;;;;;;;;;1018791;29;20620;-74
2023/09/25 01:11:47;;;;;;;4.20;2.25;;;;;;;;;;1015224;29;20068;-73
2023/09/25 01:12:18;;;;;;;3.28;1.75;;;;;;;;;;1013710;29;20028;-73
2023/09/25 01:12:49;;;;;;;6.80;3.63;;;;;;;;;;1017402;29;20103;-73
2023/09/25 01:13:19;;;;;;;2.17;1.98;;;;;;;;;;1016849;29;20460;-73
2023/09/25 01:13:50;;;;;;;6.80;4.35;;;;;;;;;;1021971;29;20073;-74
2023/09/25 01:14:20;;;;;;;8.85;5.35;;;;;;;;;;1021437;29;20125;-74
2023/09/25 01:14:51;;;;;;;19.27;9.93;;;;;;;;;;1019766;29;20019;-73
2023/09/25 01:15:21;;;;;;;13.02;6.35;;;;;;;;;;1021390;29;20050;-74
2023/09/25 01:15:52;;;;;;;9.02;5.32;;;;;;;;;;1017127;29;20051;-74
2023/09/25 01:16:23;;;;;;;14.55;5.40;;;;;;;;;;1017396;29;20026;-74
2023/09/25 01:16:53;;;;;;;16.38;6.15;;;;;;;;;;1017908;29;20425;-74
2023/09/25 01:17:24;;;;;;;19.58;4.90;;;;;;;;;;1028074;23;20050;-73
2023/09/25 01:17:55;;;;;;;5.60;3.28;;;;;;;;;;1017614;29;20091;-74
2023/09/25 01:18:25;;;;;;;6.10;4.85;;;;;;;;;;1021388;29;20019;-74
2023/09/25 01:18:57;;;;;;;5.25;4.80;;;;;;;;;;1020489;29;20020;-74
2023/09/25 01:19:27;;;;;;;10.48;5.30;;;;;;;;;;1021424;29;20392;-74
2023/09/25 01:20:05;;;;;;;4.18;1.85;;;;;;;;;;1019931;29;20386;-74
2023/09/25 01:20:36;;;;;;;8.27;2.33;;;;;;;;;;1021911;29;20019;-73
2023/09/25 01:21:06;;;;;;;2.17;2.03;;;;;;;;;;1020118;29;20019;-73
2023/09/25 01:21:37;;;;;;;3.42;2.95;;;;;;;;;;1021162;29;20118;-73
2023/09/25 01:22:07;;;;;;;2.53;2.05;;;;;;;;;;1021682;28;20146;-73
2023/09/25 01:22:42;;;;;;;1.60;1.40;;;;;;;;;;1022011;28;20117;-73
2023/09/25 01:23:13;;;;;;;5.22;3.97;;;;;;;;;;1018548;29;20163;-74
2023/09/25 01:23:43;;;;;;;3.20;2.47;;;;;;;;;;1021765;29;20062;-74
2023/09/25 01:24:13;;;;;;;3.88;3.40;;;;;;;;;;1019944;29;20503;-74
2023/09/25 01:24:44;;;;;;;10.43;2.30;;;;;;;;;;1021232;29;20050;-74
2023/09/25 01:25:15;;;;;;;3.42;1.83;;;;;;;;;;1020952;29;20121;-74
2023/09/25 01:25:46;;;;;;;3.65;2.38;;;;;;;;;;1020644;29;20508;-74
2023/09/25 01:26:16;;;;;;;6.60;2.67;;;;;;;;;;1020749;29;20023;-74
2023/09/25 01:26:47;;;;;;;6.55;2.25;;;;;;;;;;1017952;29;20027;-74
2023/09/25 01:27:18;;;;;;;4.40;2.13;;;;;;;;;;1020796;29;20027;-74
2023/09/25 01:27:48;;;;;;;2.30;1.33;;;;;;;;;;1017927;29;20150;-74
2023/09/25 01:28:19;;;;;;;4.50;1.73;;;;;;;;;;1016563;29;20479;-73
2023/09/25 01:28:49;;;;;;;3.33;2.40;;;;;;;;;;1018759;29;20035;-73
2023/09/25 01:29:20;;;;;;;7.55;3.72;;;;;;;;;;1018397;29;20579;-73
2023/09/25 01:29:51;;;;;;;2.15;2.05;;;;;;;;;;1017663;29;20400;-75
2023/09/25 01:30:21;;;;;;;1.63;1.52;;;;;;;;;;1017011;29;20115;-74
2023/09/25 01:30:53;;;;;;;4.80;3.45;;;;;;;;;;1018371;29;20075;-74
2023/09/25 01:31:23;;;;;;;1.05;0.82;;;;;;;;;;1017031;29;20070;-74
2023/09/25 01:31:54;;;;;;;2.58;2.17;;;;;;;;;;1018005;29;20026;-74
2023/09/25 01:32:24;;;;;;;2.10;1.92;;;;;;;;;;1018073;29;20131;-75
2023/09/25 01:32:55;;;;;;;5.65;3.92;;;;;;;;;;1016348;29;20028;-74
2023/09/25 01:33:28;;;;;;;5.05;1.85;;;;;;;;;;1016921;29;20027;-74
2023/09/25 01:33:59;;;;;;;4.75;2.90;;;;;;;;;;1019051;29;20842;-74
2023/09/25 01:34:29;;;;;;;5.40;1.75;;;;;;;;;;1020135;29;20084;-74
2023/09/25 01:35:04;;;;;;;2.45;1.92;;;;;;;;;;1020303;29;20034;-74
2023/09/25 01:35:34;;;;;;;1.23;1.13;;;;;;;;;;1021008;29;20083;-75
2023/09/25 01:36:05;;;;;;;3.40;2.00;;;;;;;;;;1017524;29;20151;-74
2023/09/25 01:36:36;;;;;;;1.00;0.93;;;;;;;;;;1017427;29;20059;-74
2023/09/25 01:37:06;;;;;;;1.85;1.75;;;;;;;;;;1017252;29;20020;-75
2023/09/25 01:37:37;;;;;;;2.17;1.60;;;;;;;;;;1018280;29;20035;-72
2023/09/25 01:38:11;;;;;;;3.70;3.40;;;;;;;;;;1016764;29;20078;-73
2023/09/25 01:38:41;;;;;;;7.65;4.25;;;;;;;;;;1018207;29;20032;-73
2023/09/25 01:39:12;;;;;;;1.95;1.83;;;;;;;;;;1017639;29;20473;-73
2023/09/25 01:39:42;;;;;;;1.67;1.58;;;;;;;;;;1019410;29;20126;-73
2023/09/25 01:40:14;;;;;;;2.08;1.98;;;;;;;;;;1018408;29;20519;-73
2023/09/25 01:40:44;;;;;;;19.88;3.30;;;;;;;;;;1015225;29;20471;-73
2023/09/25 01:41:15;;;;;;;1.77;1.23;;;;;;;;;;1018087;29;20071;-73
2023/09/25 01:41:45;;;;;;;13.98;2.63;;;;;;;;;;1018965;29;20391;-73
2023/09/25 01:42:16;;;;;;;12.35;2.65;;;;;;;;;;1018576;29;20471;-74
2023/09/25 01:42:47;;;;;;;3.25;1.95;;;;;;;;;;1018978;29;20040;-73
2023/09/25 01:43:20;;;;;;;7.70;2.58;;;;;;;;;;1017781;29;20111;-73
2023/09/25 01:43:51;;;;;;;3.28;2.97;;;;;;;;;;1016595;29;20090;-73
2023/09/25 01:44:23;;;;;;;1.55;1.35;;;;;;;;;;1016546;29;20502;-73
2023/09/25 01:44:54;;;;;;;1.58;1.48;;;;;;;;;;1015823;29;20072;-73
2023/09/25 01:45:25;;;;;;;2.45;2.25;;;;;;;;;;1015989;29;20023;-74
2023/09/25 01:45:55;;;;;;;9.10;4.20;;;;;;;;;;1021273;29;20019;-72
2023/09/25 01:46:25;;;;;;;1.38;1.27;;;;;;;;;;1017437;29;20027;-73
2023/09/25 01:46:57;;;;;;;1.55;1.45;;;;;;;;;;1020890;29;20031;-73
2023/09/25 01:47:27;;;;;;;4.50;3.35;;;;;;;;;;1020869;28;20034;-75
2023/09/25 01:47:58;;;;;;;1.75;1.20;;;;;;;;;;1018459;29;20530;-73
2023/09/25 01:48:28;;;;;;;4.72;4.22;;;;;;;;;;1020444;29;20745;-73
2023/09/25 01:48:58;;;;;;;2.08;1.75;;;;;;;;;;1020919;29;20039;-72
2023/09/25 01:49:33;;;;;;;3.78;1.40;;;;;;;;;;1015523;29;20031;-74
2023/09/25 01:50:03;;;;;;;4.90;3.55;;;;;;;;;;1019688;29;20126;-74
2023/09/25 01:50:34;;;;;;;3.30;2.58;;;;;;;;;;1015550;29;20024;-73
2023/09/25 01:51:09;;;;;;;4.25;1.98;;;;;;;;;;1013957;29;20150;-73
2023/09/25 01:51:39;;;;;;;8.52;2.13;;;;;;;;;;1019019;29;20043;-73
2023/09/25 01:52:12;;;;;;;1.02;0.98;;;;;;;;;;1020344;28;20560;-73
2023/09/25 01:52:42;;;;;;;4.78;1.88;;;;;;;;;;1020197;29;20503;-73
2023/09/25 01:53:13;;;;;;;2.45;1.73;;;;;;;;;;1017081;29;20020;-74
2023/09/25 01:53:46;;;;;;;3.83;3.22;;;;;;;;;;1012064;29;20031;-74
2023/09/25 01:54:16;;;;;;;5.55;3.10;;;;;;;;;;1014406;29;20031;-74
2023/09/25 01:54:46;;;;;;;5.05;1.92;;;;;;;;;;1013963;29;20420;-74
2023/09/25 01:55:17;;;;;;;9.02;3.20;;;;;;;;;;1014345;29;20028;-73
2023/09/25 01:55:48;;;;;;;10.13;4.07;;;;;;;;;;1016023;29;20036;-75
2023/09/25 01:56:19;;;;;;;5.22;3.55;;;;;;;;;;1018525;29;20031;-73
2023/09/25 01:56:49;;;;;;;1.67;1.58;;;;;;;;;;1014844;29;20039;-73
2023/09/25 01:57:21;;;;;;;4.63;3.60;;;;;;;;;;1012243;29;20024;-74
2023/09/25 01:57:51;;;;;;;11.32;3.95;;;;;;;;;;1011806;29;20454;-74
2023/09/25 01:58:22;;;;;;;3.80;2.78;;;;;;;;;;1013816;29;20028;-74
2023/09/25 01:58:52;;;;;;;5.22;2.85;;;;;;;;;;1016553;29;20633;-74
2023/09/25 01:59:23;;;;;;;5.43;2.53;;;;;;;;;;1020747;29;20118;-74
2023/09/25 01:59:53;;;;;;;5.50;3.28;;;;;;;;;;1020496;29;20073;-74
2023/09/25 02:00:27;;;;;;;1.45;1.35;;;;;;;;;;1020236;28;20039;-74
2023/09/25 02:01:03;;;;;;;9.60;5.60;;;;;;;;;;1015749;29;20027;-74
2023/09/25 02:01:33;;;;;;;2.15;1.73;;;;;;;;;;1016737;29;20114;-73
2023/09/25 02:02:05;;;;;;;3.70;2.10;;;;;;;;;;1012934;29;20145;-73
2023/09/25 02:02:36;;;;;;;7.72;3.28;;;;;;;;;;1015905;29;20110;-73
2023/09/25 02:03:11;;;;;;;2.08;1.25;;;;;;;;;;1016594;29;20062;-73
2023/09/25 02:03:42;;;;;;;8.45;2.15;;;;;;;;;;1020727;29;20031;-74
2023/09/25 02:04:12;;;;;;;2.15;1.90;;;;;;;;;;1020390;29;20503;-74
2023/09/25 02:04:42;;;;;;;4.00;3.58;;;;;;;;;;1021132;29;20492;-73
2023/09/25 02:05:13;;;;;;;2.15;1.27;;;;;;;;;;1019367;29;20042;-73
2023/09/25 02:05:44;;;;;;;3.67;2.53;;;;;;;;;;1020282;29;20046;-73
2023/09/25 02:06:15;;;;;;;3.80;2.25;;;;;;;;;;1020207;29;20031;-74
2023/09/25 02:06:45;;;;;;;4.78;2.58;;;;;;;;;;1020122;29;20846;-73
2023/09/25 02:07:18;;;;;;;2.03;1.85;;;;;;;;;;1015981;29;20126;-73
2023/09/25 02:07:49;;;;;;;4.45;2.58;;;;;;;;;;1016113;29;20042;-75
2023/09/25 02:08:19;;;;;;;3.88;3.40;;;;;;;;;;1016045;29;20507;-72
2023/09/25 02:08:49;;;;;;;3.83;2.70;;;;;;;;;;1016120;29;20391;-72
2023/09/25 02:09:20;;;;;;;7.70;2.08;;;;;;;;;;1019465;29;20027;-73
2023/09/25 02:09:50;;;;;;;5.50;2.63;;;;;;;;;;1019058;29;20031;-74
2023/09/25 02:10:21;;;;;;;7.22;2.05;;;;;;;;;;1015107;29;20024;-74
2023/09/25 02:10:52;;;;;;;3.58;2.90;;;;;;;;;;1015464;29;20035;-74
2023/09/25 02:11:22;;;;;;;2.88;1.63;;;;;;;;;;1014806;29;20126;-73
2023/09/25 02:11:53;;;;;;;9.05;3.72;;;;;;;;;;1016302;29;20036;-74
2023/09/25 02:12:23;;;;;;;4.15;3.47;;;;;;;;;;1015346;29;20024;-74
2023/09/25 02:12:54;;;;;;;1.35;1.25;;;;;;;;;;1015924;29;20034;-74
2023/09/25 02:13:24;;;;;;;2.20;2.08;;;;;;;;;;1016431;29;20145;-73
2023/09/25 02:13:55;;;;;;;3.58;2.90;;;;;;;;;;1015777;29;20023;-73
2023/09/25 02:14:25;;;;;;;1.05;1.05;;;;;;;;;;1015613;29;20031;-74
2023/09/25 02:15:01;;;;;;;8.27;4.78;;;;;;;;;;1019746;28;20031;-74
2023/09/25 02:15:31;;;;;;;4.72;2.90;;;;;;;;;;1020083;29;20027;-73
2023/09/25 02:16:03;;;;;;;4.38;3.72;;;;;;;;;;1019765;29;20059;-74
2023/09/25 02:16:34;;;;;;;2.10;1.60;;;;;;;;;;1018035;29;20122;-74
2023/09/25 02:17:04;;;;;;;2.60;1.90;;;;;;;;;;1018411;29;20397;-74
2023/09/25 02:17:36;;;;;;;2.17;1.20;;;;;;;;;;1017837;29;20065;-74
2023/09/25 02:18:08;;;;;;;11.43;3.15;;;;;;;;;;1018280;29;20535;-73
2023/09/25 02:18:39;;;;;;;4.32;3.13;;;;;;;;;;1018343;29;20706;-73
2023/09/25 02:19:09;;;;;;;5.13;2.50;;;;;;;;;;1015186;29;20024;-73
2023/09/25 02:19:40;;;;;;;3.30;3.00;;;;;;;;;;1015926;29;20031;-73
2023/09/25 02:20:20;;;;;;;5.03;3.83;;;;;;;;;;1016245;29;20528;-73
2023/09/25 02:20:50;;;;;;;1.52;1.42;;;;;;;;;;1014980;29;20039;-73
2023/09/25 02:21:22;;;;;;;2.75;2.35;;;;;;;;;;1015498;29;20036;-73
2023/09/25 02:21:53;;;;;;;3.80;3.42;;;;;;;;;;1015927;28;20032;-74
2023/09/25 02:22:23;;;;;;;3.03;2.83;;;;;;;;;;1018977;28;20054;-73
2023/09/25 02:22:53;;;;;;;16.67;3.47;;;;;;;;;;1018556;29;20078;-73
2023/09/25 02:23:24;;;;;;;4.07;3.20;;;;;;;;;;1019777;29;20031;-74
2023/09/25 02:23:54;;;;;;;2.28;1.95;;;;;;;;;;1017456;29;20027;-73
2023/09/25 02:24:25;;;;;;;3.10;2.20;;;;;;;;;;1016646;29;20031;-74
2023/09/25 02:24:55;;;;;;;1.42;1.17;;;;;;;;;;1016890;29;20042;-74
2023/09/25 02:25:26;;;;;;;4.35;3.70;;;;;;;;;;1016415;29;20039;-73
2023/09/25 02:25:56;;;;;;;4.72;2.22;;;;;;;;;;1013278;29;20378;-73
2023/09/25 02:26:27;;;;;;;15.68;4.15;;;;;;;;;;1015957;29;20495;-73
2023/09/25 02:27:00;;;;;;;7.63;1.75;;;;;;;;;;1015706;29;20304;-74
2023/09/25 02:27:31;;;;;;;2.80;2.30;;;;;;;;;;1015466;29;20115;-73
2023/09/25 02:28:02;;;;;;;5.15;3.03;;;;;;;;;;1014471;29;20037;-73
2023/09/25 02:28:32;;;;;;;5.60;2.58;;;;;;;;;;1014911;29;20345;-74
2023/09/25 02:29:03;;;;;;;1.90;1.80;;;;;;;;;;1015553;29;20023;-74
2023/09/25 02:29:33;;;;;;;3.25;3.03;;;;;;;;;;1016162;29;20024;-73
2023/09/25 02:30:05;;;;;;;2.92;2.72;;;;;;;;;;1015281;29;20709;-73
2023/09/25 02:30:36;;;;;;;3.67;2.35;;;;;;;;;;1015724;29;20127;-73
2023/09/25 02:31:07;;;;;;;2.63;2.45;;;;;;;;;;1016515;29;20030;-74
2023/09/25 02:31:38;;;;;;;3.80;2.22;;;;;;;;;;1016228;29;20039;-73
2023/09/25 02:32:08;;;;;;;2.72;2.45;;;;;;;;;;1016286;29;20095;-73
2023/09/25 02:32:39;;;;;;;3.22;2.28;;;;;;;;;;1013373;29;20123;-73
2023/09/25 02:33:10;;;;;;;2.28;2.08;;;;;;;;;;1014949;29;20116;-73
2023/09/25 02:33:40;;;;;;;1.42;1.23;;;;;;;;;;1015558;29;20023;-74
2023/09/25 02:34:14;;;;;;;4.78;4.03;;;;;;;;;;1014026;29;20028;-73
2023/09/25 02:34:46;;;;;;;11.90;3.42;;;;;;;;;;1016407;29;20043;-74
2023/09/25 02:35:17;;;;;;;1.60;1.50;;;;;;;;;;1016269;29;20031;-73
2023/09/25 02:35:47;;;;;;;3.60;2.55;;;;;;;;;;1015796;29;20539;-73
2023/09/25 02:36:18;;;;;;;8.45;2.95;;;;;;;;;;1012310;29;20087;-73
2023/09/25 02:36:51;;;;;;;11.20;2.53;;;;;;;;;;1013090;29;20056;-73
2023/09/25 02:37:22;;;;;;;2.95;2.65;;;;;;;;;;1015487;29;20030;-73
2023/09/25 02:37:55;;;;;;;4.00;1.77;;;;;;;;;;1016121;29;20032;-74
2023/09/25 02:38:27;;;;;;;7.75;4.22;;;;;;;;;;1014862;29;20036;-73
2023/09/25 02:38:57;;;;;;;3.95;3.25;;;;;;;;;;1015319;29;20659;-74
2023/09/25 02:39:28;;;;;;;2.45;2.25;;;;;;;;;;1014043;29;20031;-74
2023/09/25 02:39:58;;;;;;;1.10;1.08;;;;;;;;;;1010946;29;20102;-73
2023/09/25 02:40:29;;;;;;;3.67;2.25;;;;;;;;;;1015382;29;20494;-73
2023/09/25 02:40:59;;;;;;;1.90;1.80;;;;;;;;;;1015498;29;20031;-73
2023/09/25 02:41:30;;;;;;;10.95;4.53;;;;;;;;;;1015371;29;20421;-73
2023/09/25 02:42:00;;;;;;;3.90;3.35;;;;;;;;;;1015434;29;20472;-74
2023/09/25 02:42:31;;;;;;;2.20;2.03;;;;;;;;;;1016281;29;20856;-73
2023/09/25 02:43:01;;;;;;;4.95;4.10;;;;;;;;;;1016335;29;20047;-74
2023/09/25 02:43:32;;;;;;;8.63;3.65;;;;;;;;;;1014266;29;20418;-73
2023/09/25 02:44:02;;;;;;;10.93;3.97;;;;;;;;;;1016224;29;20384;-73
2023/09/25 02:44:33;;;;;;;6.35;1.85;;;;;;;;;;1016209;29;20408;-74
2023/09/25 02:45:03;;;;;;;5.00;2.25;;;;;;;;;;1015376;29;20027;-73
2023/09/25 02:45:34;;;;;;;14.90;4.50;;;;;;;;;;1015792;29;20043;-73
2023/09/25 02:46:05;;;;;;;6.22;2.50;;;;;;;;;;1016029;29;20055;-73
2023/09/25 02:46:36;;;;;;;4.80;2.55;;;;;;;;;;1013306;29;20035;-73
2023/09/25 02:47:06;;;;;;;2.08;1.98;;;;;;;;;;1012262;29;20647;-73
2023/09/25 02:47:37;;;;;;;4.50;3.80;;;;;;;;;;1015268;29;20404;-74
2023/09/25 02:48:07;;;;;;;3.10;2.67;;;;;;;;;;1013550;29;20043;-73
2023/09/25 02:48:38;;;;;;;4.65;3.30;;;;;;;;;;1020119;29;20019;-73
2023/09/25 02:49:09;;;;;;;5.10;2.28;;;;;;;;;;1019528;29;20467;-73
2023/09/25 02:49:40;;;;;;;3.85;3.00;;;;;;;;;;1019271;29;20118;-73
2023/09/25 02:50:11;;;;;;;3.90;2.55;;;;;;;;;;1018971;29;20476;-74
2023/09/25 02:50:42;;;;;;;8.02;4.13;;;;;;;;;;1020855;29;20130;-74
2023/09/25 02:51:12;;;;;;;6.90;3.75;;;;;;;;;;1018256;29;20427;-73
2023/09/25 02:51:43;;;;;;;2.08;1.52;;;;;;;;;;1018893;29;20053;-74
2023/09/25 02:52:14;;;;;;;5.95;4.35;;;;;;;;;;1015032;29;20033;-73
2023/09/25 02:52:44;;;;;;;3.15;2.75;;;;;;;;;;1015366;29;20024;-73
2023/09/25 02:53:18;;;;;;;3.38;2.97;;;;;;;;;;1014202;29;20027;-73
2023/09/25 02:53:52;;;;;;;10.40;3.45;;;;;;;;;;1015366;29;20032;-73
2023/09/25 02:54:22;;;;;;;8.65;5.15;;;;;;;;;;1015474;29;20298;-74
2023/09/25 02:54:53;;;;;;;4.05;3.65;;;;;;;;;;1014193;29;20572;-74
2023/09/25 02:55:23;;;;;;;5.97;4.90;;;;;;;;;;1015310;29;20070;-73
2023/09/25 02:55:54;;;;;;;3.72;3.10;;;;;;;;;;1016899;29;20138;-73
2023/09/25 02:56:24;;;;;;;4.43;3.10;;;;;;;;;;1019068;29;21266;-74
2023/09/25 02:56:55;;;;;;;3.35;2.50;;;;;;;;;;1018570;29;20122;-74
2023/09/25 02:57:25;;;;;;;6.68;4.55;;;;;;;;;;1018170;28;20584;-74
2023/09/25 02:57:56;;;;;;;3.22;2.92;;;;;;;;;;1017088;28;20031;-73
2023/09/25 02:58:26;;;;;;;5.82;3.42;;;;;;;;;;1014005;29;20043;-73
2023/09/25 02:58:57;;;;;;;3.75;3.30;;;;;;;;;;1015754;29;20395;-73
2023/09/25 02:59:27;;;;;;;9.48;2.30;;;;;;;;;;1017845;28;20506;-73
2023/09/25 02:59:58;;;;;;;4.57;3.92;;;;;;;;;;1016149;28;21168;-73
2023/09/25 03:00:28;;;;;;;6.55;4.53;;;;;;;;;;1019518;29;21050;-73
2023/09/25 03:01:00;;;;;;;3.67;3.05;;;;;;;;;;1018324;28;21553;-73
2023/09/25 03:01:32;;;;;;;2.45;2.25;;;;;;;;;;1015386;29;20032;-74
2023/09/25 03:02:02;;;;;;;6.55;3.83;;;;;;;;;;1014903;29;21221;-74
2023/09/25 03:02:33;;;;;;;2.90;2.53;;;;;;;;;;1015668;29;20032;-74
2023/09/25 03:03:04;;;;;;;5.10;2.38;;;;;;;;;;1015970;29;20055;-73
2023/09/25 03:03:34;;;;;;;9.55;6.07;;;;;;;;;;1015876;29;20136;-73
2023/09/25 03:04:05;;;;;;;8.75;1.85;;;;;;;;;;1015324;29;20031;-74
2023/09/25 03:04:37;;;;;;;4.78;4.15;;;;;;;;;;1015893;29;20071;-73
2023/09/25 03:05:07;;;;;;;6.57;3.30;;;;;;;;;;1015365;29;20027;-73
2023/09/25 03:05:38;;;;;;;2.95;2.75;;;;;;;;;;1015224;29;20031;-73
2023/09/25 03:06:08;;;;;;;3.20;2.92;;;;;;;;;;1013412;29;20432;-73